Time;durP1;ratioP1;P1;durP2;ratioP2;P2;SDS_P1;SDS_P2;PMS_P1;PMS_P2;Temp;Humidity;BMP_temperature;BMP_pressure;BME280_temperature;BME280_humidity;BME280_pressure;Samples;Min_cycle;Max_cycle;Signal;HPM_P1;HPM_P2
2024/03/19 00:01:06;;;;;;;;;;;20.70;58.30;;;;;;1542868;76;586;-77
2024/03/19 00:03:08;;;;;;;;;;;20.70;58.30;;;;;;1547791;76;734;-76
2024/03/19 00:05:10;;;;;;;;;;;20.70;58.30;;;;;;1547645;76;1150;-76
2024/03/19 00:07:12;;;;;;;;;;;20.80;58.40;;;;;;1535477;76;705;-74
2024/03/19 00:09:14;;;;;;;;;;;20.80;58.40;;;;;;1542762;76;738;-73
2024/03/19 00:11:16;;;;;;;;;;;20.70;58.40;;;;;;1544189;76;640;-73
2024/03/19 00:13:18;;;;;;;;;;;20.70;58.40;;;;;;1530078;76;1173;-74
2024/03/19 00:15:20;;;;;;;;;;;20.70;58.40;;;;;;1536191;76;1958;-76
2024/03/19 00:17:21;;;;;;;;;;;20.70;58.40;;;;;;1543778;76;688;-73
2024/03/19 00:19:24;;;;;;;;;;;20.70;58.40;;;;;;1546023;76;687;-75
2024/03/19 00:21:26;;;;;;;;;;;20.70;58.40;;;;;;1549119;76;640;-75
2024/03/19 00:23:28;;;;;;;;;;;20.80;58.40;;;;;;1540087;76;1137;-75
2024/03/19 00:25:30;;;;;;;;;;;20.80;58.50;;;;;;1547677;76;1590;-76
2024/03/19 00:27:32;;;;;;;;;;;20.80;58.50;;;;;;1549224;76;617;-73
2024/03/19 00:29:35;;;;;;;;;;;20.70;58.50;;;;;;1549913;76;814;-74
2024/03/19 00:31:37;;;;;;;;;;;20.80;58.50;;;;;;1546783;76;920;-74
2024/03/19 00:33:39;;;;;;;;;;;20.80;58.50;;;;;;1547829;76;1151;-73
2024/03/19 00:35:48;;;;;;;;;;;20.70;58.60;;;;;;1551517;76;1925;-77
2024/03/19 00:37:48;;;;;;;;;;;20.70;58.60;;;;;;1549238;76;1307;-77
2024/03/19 00:39:50;;;;;;;;;;;20.80;58.60;;;;;;1538377;76;1561;-74
2024/03/19 00:41:52;;;;;;;;;;;20.70;58.60;;;;;;1550198;76;584;-75
2024/03/19 00:43:54;;;;;;;;;;;20.80;58.60;;;;;;1542302;76;1149;-74
2024/03/19 00:45:56;;;;;;;;;;;20.70;58.60;;;;;;1543953;76;760;-76
2024/03/19 00:47:58;;;;;;;;;;;20.80;58.70;;;;;;1544132;76;712;-73
2024/03/19 00:50:00;;;;;;;;;;;20.70;58.70;;;;;;1548113;76;763;-75
2024/03/19 00:52:03;;;;;;;;;;;20.70;58.60;;;;;;1535280;76;744;-76
2024/03/19 00:54:05;;;;;;;;;;;20.80;58.70;;;;;;1534792;76;1954;-74
2024/03/19 00:56:07;;;;;;;;;;;20.70;58.60;;;;;;1543230;76;727;-73
2024/03/19 00:58:09;;;;;;;;;;;20.70;58.60;;;;;;1548461;76;742;-74
2024/03/19 01:00:11;;;;;;;;;;;20.70;58.60;;;;;;1549000;76;721;-74
2024/03/19 01:02:13;;;;;;;;;;;20.70;58.60;;;;;;1552054;76;727;-73
2024/03/19 01:04:15;;;;;;;;;;;20.80;58.60;;;;;;1548908;76;1123;-73
2024/03/19 01:06:17;;;;;;;;;;;20.70;58.60;;;;;;1545221;76;723;-75
2024/03/19 01:08:18;;;;;;;;;;;20.70;58.60;;;;;;1550241;76;1481;-71
2024/03/19 01:10:20;;;;;;;;;;;20.70;58.60;;;;;;1537333;76;732;-74
2024/03/19 01:12:22;;;;;;;;;;;20.80;58.70;;;;;;1545544;76;698;-75
2024/03/19 01:14:24;;;;;;;;;;;20.70;58.60;;;;;;1543648;76;1949;-74
2024/03/19 01:16:26;;;;;;;;;;;20.70;58.70;;;;;;1544038;76;712;-73
2024/03/19 01:18:28;;;;;;;;;;;20.80;58.60;;;;;;1546221;76;687;-74
2024/03/19 01:20:31;;;;;;;;;;;20.70;58.60;;;;;;1542532;76;703;-75
2024/03/19 01:22:33;;;;;;;;;;;20.70;58.60;;;;;;1541752;76;1246;-75
2024/03/19 01:24:35;;;;;;;;;;;20.80;58.70;;;;;;1543964;76;1138;-75
2024/03/19 01:26:37;;;;;;;;;;;20.70;58.70;;;;;;1550803;76;737;-75
2024/03/19 01:28:39;;;;;;;;;;;20.80;58.70;;;;;;1551045;76;748;-74
2024/03/19 01:30:42;;;;;;;;;;;20.80;58.70;;;;;;1548741;75;689;-75
2024/03/19 01:32:43;;;;;;;;;;;20.70;58.70;;;;;;1540841;76;759;-75
2024/03/19 01:34:45;;;;;;;;;;;20.80;58.70;;;;;;1547924;76;1962;-75
2024/03/19 01:36:47;;;;;;;;;;;20.70;58.70;;;;;;1540975;76;1621;-77
2024/03/19 01:38:49;;;;;;;;;;;20.70;58.70;;;;;;1537764;76;750;-78
2024/03/19 01:40:52;;;;;;;;;;;20.70;58.60;;;;;;1549582;76;848;-77
2024/03/19 01:42:53;;;;;;;;;;;20.70;58.70;;;;;;1549370;76;791;-76
2024/03/19 01:44:58;;;;;;;;;;;20.80;58.70;;;;;;1545208;76;1156;-73
2024/03/19 01:47:00;;;;;;;;;;;20.70;58.70;;;;;;1545684;75;1585;-75
2024/03/19 01:49:02;;;;;;;;;;;20.70;58.70;;;;;;1548247;76;736;-74
2024/03/19 01:51:04;;;;;;;;;;;20.70;58.70;;;;;;1542881;76;1486;-77
2024/03/19 01:53:06;;;;;;;;;;;20.80;58.70;;;;;;1541483;76;658;-75
2024/03/19 01:55:08;;;;;;;;;;;20.80;58.70;;;;;;1548708;76;1944;-75
2024/03/19 01:57:10;;;;;;;;;;;20.70;58.70;;;;;;1548875;76;694;-76
2024/03/19 01:59:12;;;;;;;;;;;20.70;58.70;;;;;;1547382;76;697;-75
2024/03/19 02:01:15;;;;;;;;;;;20.70;58.70;;;;;;1548216;76;696;-78
2024/03/19 02:03:17;;;;;;;;;;;20.70;58.70;;;;;;1545107;76;1147;-75
2024/03/19 02:05:20;;;;;;;;;;;20.70;58.70;;;;;;1541029;76;1508;-79
2024/03/19 02:07:22;;;;;;;;;;;20.70;58.70;;;;;;1535363;76;734;-76
2024/03/19 02:09:23;;;;;;;;;;;20.70;58.70;;;;;;1547178;76;736;-76
2024/03/19 02:11:25;;;;;;;;;;;20.70;58.70;;;;;;1545696;76;781;-73
2024/03/19 02:13:27;;;;;;;;;;;20.80;58.70;;;;;;1540725;76;1154;-75
2024/03/19 02:15:29;;;;;;;;;;;20.70;58.70;;;;;;1544942;76;1935;-75
2024/03/19 02:17:31;;;;;;;;;;;20.70;58.70;;;;;;1540854;76;725;-75
2024/03/19 02:19:36;;;;;;;;;;;20.80;58.70;;;;;;1486823;79;1614;-74
2024/03/19 02:21:37;;;;;;;;;;;20.70;58.70;;;;;;1489997;78;695;-73
2024/03/19 02:23:39;;;;;;;;;;;20.70;58.70;;;;;;1501350;78;1152;-73
2024/03/19 02:25:42;;;;;;;;;;;20.70;58.70;;;;;;1491030;78;720;-76
2024/03/19 02:27:45;;;;;;;;;;;20.70;58.70;;;;;;1484380;78;671;-74
2024/03/19 02:29:47;;;;;;;;;;;20.70;58.70;;;;;;1493496;78;697;-74
2024/03/19 02:31:49;;;;;;;;;;;20.70;58.70;;;;;;1493171;79;741;-74
2024/03/19 02:33:52;;;;;;;;;;;20.80;58.70;;;;;;1489903;78;1676;-77
2024/03/19 02:35:54;;;;;;;;;;;20.70;58.70;;;;;;1497819;78;1929;-75
2024/03/19 02:37:56;;;;;;;;;;;20.70;58.70;;;;;;1487460;78;764;-75
2024/03/19 02:40:00;;;;;;;;;;;20.70;58.70;;;;;;1500152;78;722;-75
2024/03/19 02:42:01;;;;;;;;;;;20.80;58.70;;;;;;1500737;78;2040;-76
2024/03/19 02:44:03;;;;;;;;;;;20.70;58.80;;;;;;1482623;79;1119;-73
2024/03/19 02:46:05;;;;;;;;;;;20.80;58.70;;;;;;1514173;77;1531;-74
2024/03/19 02:48:07;;;;;;;;;;;20.70;58.80;;;;;;1518067;77;644;-72
2024/03/19 02:50:09;;;;;;;;;;;20.80;58.80;;;;;;1513715;78;669;-75
2024/03/19 02:52:11;;;;;;;;;;;20.70;58.70;;;;;;1514760;77;806;-73
2024/03/19 02:54:13;;;;;;;;;;;20.70;58.70;;;;;;1513721;78;1219;-75
2024/03/19 02:56:15;;;;;;;;;;;20.70;58.70;;;;;;1503435;77;1947;-72
2024/03/19 02:58:16;;;;;;;;;;;20.80;58.80;;;;;;1508862;78;604;-74
2024/03/19 03:00:18;;;;;;;;;;;20.80;58.80;;;;;;1512331;77;1432;-74
2024/03/19 03:02:20;;;;;;;;;;;20.70;58.80;;;;;;1514297;77;709;-73
2024/03/19 03:04:22;;;;;;;;;;;20.80;58.80;;;;;;1501885;77;1192;-73
2024/03/19 03:06:25;;;;;;;;;;;20.70;58.80;;;;;;1511457;78;658;-73
2024/03/19 03:08:27;;;;;;;;;;;20.70;58.80;;;;;;1508006;78;711;-73
2024/03/19 03:10:29;;;;;;;;;;;20.70;58.90;;;;;;1506500;78;732;-74
2024/03/19 03:12:31;;;;;;;;;;;20.70;58.90;;;;;;1505142;77;714;-71
2024/03/19 03:14:33;;;;;;;;;;;20.80;58.90;;;;;;1511750;78;1304;-73
2024/03/19 03:16:35;;;;;;;;;;;20.70;58.90;;;;;;1517308;77;1932;-74
2024/03/19 03:18:36;;;;;;;;;;;20.80;58.90;;;;;;1512842;77;729;-73
2024/03/19 03:20:38;;;;;;;;;;;20.80;59.00;;;;;;1521416;77;713;-72
2024/03/19 03:22:40;;;;;;;;;;;20.80;59.00;;;;;;1511924;78;757;-73
2024/03/19 03:24:42;;;;;;;;;;;20.80;59.00;;;;;;1506178;77;1120;-72
2024/03/19 03:26:44;;;;;;;;;;;20.80;59.00;;;;;;1512697;78;765;-74
2024/03/19 03:28:46;;;;;;;;;;;20.80;59.00;;;;;;1515254;77;1584;-73
2024/03/19 03:30:48;;;;;;;;;;;20.80;59.00;;;;;;1505070;77;747;-72
2024/03/19 03:32:50;;;;;;;;;;;20.80;59.00;;;;;;1520526;78;634;-74
2024/03/19 03:34:52;;;;;;;;;;;20.80;59.00;;;;;;1520099;78;1923;-73
2024/03/19 03:36:55;;;;;;;;;;;20.80;59.00;;;;;;1517341;77;619;-73
2024/03/19 03:38:56;;;;;;;;;;;20.80;59.00;;;;;;1507772;78;727;-72
2024/03/19 03:40:58;;;;;;;;;;;20.80;59.10;;;;;;1512668;77;678;-74
2024/03/19 03:43:00;;;;;;;;;;;20.80;59.00;;;;;;1506957;78;1562;-75
2024/03/19 03:45:02;;;;;;;;;;;20.80;59.00;;;;;;1504035;77;1082;-71
2024/03/19 03:47:05;;;;;;;;;;;20.80;59.00;;;;;;1512230;78;761;-72
2024/03/19 03:49:07;;;;;;;;;;;20.80;59.00;;;;;;1513032;77;959;-72
2024/03/19 03:51:08;;;;;;;;;;;20.80;59.10;;;;;;1512211;77;769;-73
2024/03/19 03:53:10;;;;;;;;;;;20.80;59.10;;;;;;1504159;78;663;-72
2024/03/19 03:55:12;;;;;;;;;;;20.80;59.00;;;;;;1497114;78;1957;-72
2024/03/19 03:57:14;;;;;;;;;;;20.80;59.00;;;;;;1505382;77;1308;-72
2024/03/19 03:59:16;;;;;;;;;;;20.80;59.10;;;;;;1499375;77;771;-72
2024/03/19 04:01:18;;;;;;;;;;;20.80;59.10;;;;;;1496460;77;719;-74
2024/03/19 04:03:20;;;;;;;;;;;20.80;59.10;;;;;;1504757;77;1120;-72
2024/03/19 04:05:22;;;;;;;;;;;20.80;59.10;;;;;;1494664;78;827;-76
2024/03/19 04:07:24;;;;;;;;;;;20.80;59.10;;;;;;1497171;78;755;-74
2024/03/19 04:09:26;;;;;;;;;;;20.80;59.10;;;;;;1497917;78;638;-78
2024/03/19 04:11:28;;;;;;;;;;;20.80;59.10;;;;;;1496666;78;1558;-75
2024/03/19 04:13:30;;;;;;;;;;;20.80;59.10;;;;;;1499691;78;1101;-76
2024/03/19 04:15:32;;;;;;;;;;;20.80;59.10;;;;;;1511073;78;1941;-75
2024/03/19 04:17:34;;;;;;;;;;;20.80;59.10;;;;;;1490980;78;649;-73
2024/03/19 04:19:36;;;;;;;;;;;20.80;59.10;;;;;;1506122;77;883;-73
2024/03/19 04:21:38;;;;;;;;;;;20.80;59.10;;;;;;1507743;78;688;-73
2024/03/19 04:23:40;;;;;;;;;;;20.80;59.10;;;;;;1486004;77;1137;-75
2024/03/19 04:25:42;;;;;;;;;;;20.80;59.10;;;;;;1492638;77;1469;-72
2024/03/19 04:27:44;;;;;;;;;;;20.80;59.20;;;;;;1488673;77;687;-74
2024/03/19 04:29:48;;;;;;;;;;;20.80;59.20;;;;;;1507525;77;760;-75
2024/03/19 04:31:50;;;;;;;;;;;20.90;59.30;;;;;;1494673;77;706;-73
2024/03/19 04:33:52;;;;;;;;;;;20.90;59.30;;;;;;1509393;78;1243;-76
2024/03/19 04:35:54;;;;;;;;;;;20.80;59.20;;;;;;1510368;77;1938;-74
2024/03/19 04:37:56;;;;;;;;;;;20.80;59.20;;;;;;1502516;78;732;-74
2024/03/19 04:39:58;;;;;;;;;;;20.80;59.20;;;;;;1501968;78;1525;-74
2024/03/19 04:42:00;;;;;;;;;;;20.80;59.20;;;;;;1505101;78;740;-71
2024/03/19 04:44:01;;;;;;;;;;;20.80;59.20;;;;;;1506499;77;1172;-74
2024/03/19 04:46:03;;;;;;;;;;;20.80;59.20;;;;;;1505258;78;608;-74
2024/03/19 04:48:06;;;;;;;;;;;20.80;59.20;;;;;;1502568;77;899;-74
2024/03/19 04:50:08;;;;;;;;;;;20.80;59.20;;;;;;1491638;77;752;-74
2024/03/19 04:52:10;;;;;;;;;;;20.80;59.20;;;;;;1496737;78;816;-78
2024/03/19 04:54:12;;;;;;;;;;;20.80;59.20;;;;;;1500231;77;1539;-78
2024/03/19 04:56:13;;;;;;;;;;;20.80;59.20;;;;;;1500379;77;1935;-75
2024/03/19 04:58:15;;;;;;;;;;;20.80;59.20;;;;;;1498745;78;699;-74
2024/03/19 05:00:17;;;;;;;;;;;20.80;59.30;;;;;;1498207;77;792;-75
2024/03/19 05:02:19;;;;;;;;;;;20.80;59.30;;;;;;1500497;77;724;-77
2024/03/19 05:04:21;;;;;;;;;;;20.80;59.40;;;;;;1514880;77;1168;-71
2024/03/19 05:06:23;;;;;;;;;;;20.80;59.50;;;;;;1503735;77;718;-77
2024/03/19 05:08:25;;;;;;;;;;;20.80;59.40;;;;;;1507859;78;1300;-71
2024/03/19 05:10:27;;;;;;;;;;;20.80;59.50;;;;;;1497492;77;790;-77
2024/03/19 05:12:29;;;;;;;;;;;20.80;59.40;;;;;;1502889;77;765;-73
2024/03/19 05:14:30;;;;;;;;;;;20.80;59.40;;;;;;1505930;77;1153;-74
2024/03/19 05:16:32;;;;;;;;;;;20.80;59.40;;;;;;1496338;78;1939;-77
2024/03/19 05:18:34;;;;;;;;;;;20.80;59.40;;;;;;1498310;77;770;-75
2024/03/19 05:20:36;;;;;;;;;;;20.80;59.40;;;;;;1501992;77;866;-75
2024/03/19 05:22:38;;;;;;;;;;;20.80;59.40;;;;;;1500981;77;1672;-77
2024/03/19 05:24:40;;;;;;;;;;;20.80;59.40;;;;;;1496895;78;1145;-77
2024/03/19 05:26:42;;;;;;;;;;;20.80;59.40;;;;;;1498680;77;683;-74
2024/03/19 05:28:44;;;;;;;;;;;20.80;59.40;;;;;;1495788;78;772;-75
2024/03/19 05:30:46;;;;;;;;;;;20.80;59.50;;;;;;1494488;78;753;-76
2024/03/19 05:32:49;;;;;;;;;;;20.90;59.60;;;;;;1508770;77;751;-76
2024/03/19 05:34:51;;;;;;;;;;;20.80;59.50;;;;;;1502152;78;1498;-76
2024/03/19 05:36:53;;;;;;;;;;;20.90;59.60;;;;;;1494635;78;1943;-75
2024/03/19 05:38:55;;;;;;;;;;;20.80;59.50;;;;;;1503996;78;657;-77
2024/03/19 05:40:57;;;;;;;;;;;20.90;59.70;;;;;;1492763;77;741;-75
2024/03/19 05:42:59;;;;;;;;;;;20.80;59.60;;;;;;1504267;77;749;-77
2024/03/19 05:45:00;;;;;;;;;;;20.90;59.80;;;;;;1503260;78;1110;-75
2024/03/19 05:47:02;;;;;;;;;;;20.90;59.80;;;;;;1509808;77;709;-75
2024/03/19 05:49:09;;;;;;;;;;;20.90;59.80;;;;;;1496828;77;1546;-73
2024/03/19 05:51:12;;;;;;;;;;;20.80;59.90;;;;;;1506700;78;1114;-78
2024/03/19 05:53:14;;;;;;;;;;;20.80;59.80;;;;;;1500777;78;740;-76
2024/03/19 05:55:16;;;;;;;;;;;20.90;60.00;;;;;;1504469;77;1200;-76
2024/03/19 05:57:18;;;;;;;;;;;20.80;60.00;;;;;;1503142;77;1931;-74
2024/03/19 05:59:19;;;;;;;;;;;20.90;60.30;;;;;;1507389;77;662;-74
2024/03/19 06:01:22;;;;;;;;;;;20.90;60.20;;;;;;1502872;77;754;-75
2024/03/19 06:03:23;;;;;;;;;;;20.80;60.10;;;;;;1503891;78;1544;-74
2024/03/19 06:05:25;;;;;;;;;;;20.80;60.10;;;;;;1497357;77;812;-74
2024/03/19 06:07:27;;;;;;;;;;;20.90;60.20;;;;;;1505118;78;701;-74
2024/03/19 06:09:29;;;;;;;;;;;20.90;60.20;;;;;;1502994;77;764;-76
2024/03/19 06:11:31;;;;;;;;;;;20.90;60.10;;;;;;1498647;77;727;-77
2024/03/19 06:13:33;;;;;;;;;;;20.90;60.10;;;;;;1499814;78;1157;-77
2024/03/19 06:15:35;;;;;;;;;;;20.90;60.10;;;;;;1499277;78;855;-75
2024/03/19 06:17:37;;;;;;;;;;;20.80;60.00;;;;;;1501929;78;1952;-76
2024/03/19 06:19:39;;;;;;;;;;;20.90;60.20;;;;;;1501737;77;709;-77
2024/03/19 06:21:42;;;;;;;;;;;20.90;60.20;;;;;;1502993;78;837;-75
2024/03/19 06:23:44;;;;;;;;;;;20.90;60.20;;;;;;1495784;77;1147;-78
2024/03/19 06:25:46;;;;;;;;;;;20.90;60.20;;;;;;1505090;77;612;-75
2024/03/19 06:27:49;;;;;;;;;;;20.90;60.20;;;;;;1498406;77;753;-77
2024/03/19 06:29:51;;;;;;;;;;;20.90;60.10;;;;;;1503465;78;717;-75
2024/03/19 06:31:53;;;;;;;;;;;20.90;60.20;;;;;;1498670;77;1536;-76
2024/03/19 06:33:55;;;;;;;;;;;20.80;60.10;;;;;;1495809;78;1153;-75
2024/03/19 06:35:57;;;;;;;;;;;20.90;60.20;;;;;;1508577;78;651;-75
2024/03/19 06:37:59;;;;;;;;;;;20.90;60.10;;;;;;1510864;77;740;-78
2024/03/19 06:40:01;;;;;;;;;;;20.90;60.20;;;;;;1508038;77;713;-75
2024/03/19 06:42:03;;;;;;;;;;;20.90;60.20;;;;;;1501715;78;679;-73
2024/03/19 06:44:05;;;;;;;;;;;20.80;60.00;;;;;;1506032;78;1120;-76
2024/03/19 06:46:07;;;;;;;;;;;20.80;60.00;;;;;;1491460;77;1578;-75
2024/03/19 06:48:09;;;;;;;;;;;20.90;60.10;;;;;;1494805;77;779;-75
2024/03/19 06:50:13;;;;;;;;;;;20.90;60.20;;;;;;1490190;78;742;-75
2024/03/19 06:52:15;;;;;;;;;;;20.80;60.00;;;;;;1495813;78;1529;-74
2024/03/19 06:54:17;;;;;;;;;;;20.80;60.00;;;;;;1501579;77;1212;-75
2024/03/19 06:56:19;;;;;;;;;;;20.90;60.10;;;;;;1507124;78;1949;-75
2024/03/19 06:58:21;;;;;;;;;;;20.90;60.10;;;;;;1504632;77;760;-76
2024/03/19 07:00:23;;;;;;;;;;;20.90;60.10;;;;;;1496907;78;1343;-76
2024/03/19 07:02:25;;;;;;;;;;;20.90;60.10;;;;;;1504618;78;767;-74
2024/03/19 07:04:27;;;;;;;;;;;20.90;60.10;;;;;;1508874;78;1127;-74
2024/03/19 07:06:29;;;;;;;;;;;20.90;60.10;;;;;;1496020;78;732;-75
2024/03/19 07:08:31;;;;;;;;;;;20.90;60.10;;;;;;1495845;77;708;-76
2024/03/19 07:10:33;;;;;;;;;;;20.90;60.10;;;;;;1485298;77;715;-76
2024/03/19 07:12:35;;;;;;;;;;;20.90;60.10;;;;;;1498903;78;722;-75
2024/03/19 07:14:37;;;;;;;;;;;20.90;60.10;;;;;;1500017;78;1467;-75
2024/03/19 07:16:38;;;;;;;;;;;20.90;60.10;;;;;;1507030;77;1942;-75
2024/03/19 07:18:40;;;;;;;;;;;20.90;60.00;;;;;;1491897;78;742;-74
2024/03/19 07:20:43;;;;;;;;;;;20.80;59.90;;;;;;1496966;78;789;-76
2024/03/19 07:22:45;;;;;;;;;;;20.90;60.00;;;;;;1494818;77;713;-79
2024/03/19 07:24:47;;;;;;;;;;;20.80;59.90;;;;;;1502933;77;1180;-76
2024/03/19 07:26:49;;;;;;;;;;;20.90;60.00;;;;;;1508220;77;738;-75
2024/03/19 07:28:51;;;;;;;;;;;20.90;60.00;;;;;;1497481;78;1444;-75
2024/03/19 07:30:53;;;;;;;;;;;20.90;60.00;;;;;;1499887;78;746;-77
2024/03/19 07:32:55;;;;;;;;;;;20.90;60.00;;;;;;1502537;77;724;-75
2024/03/19 07:34:57;;;;;;;;;;;20.80;59.80;;;;;;1504038;77;1090;-75
2024/03/19 07:36:59;;;;;;;;;;;20.90;59.90;;;;;;1505709;78;1930;-77
2024/03/19 07:39:03;;;;;;;;;;;20.90;59.90;;;;;;1498110;77;740;-75
2024/03/19 07:41:05;;;;;;;;;;;20.90;59.90;;;;;;1503332;78;720;-76
2024/03/19 07:43:07;;;;;;;;;;;20.90;59.90;;;;;;1499786;78;1650;-76
2024/03/19 07:45:09;;;;;;;;;;;20.90;59.90;;;;;;1498693;78;1054;-75
2024/03/19 07:47:10;;;;;;;;;;;20.90;59.80;;;;;;1504755;78;722;-75
2024/03/19 07:49:12;;;;;;;;;;;20.90;59.80;;;;;;1495135;78;767;-77
2024/03/19 07:51:14;;;;;;;;;;;20.90;59.80;;;;;;1491342;78;624;-75
2024/03/19 07:53:16;;;;;;;;;;;20.90;59.80;;;;;;1489943;79;785;-74
2024/03/19 07:55:18;;;;;;;;;;;20.90;59.80;;;;;;1495100;78;784;-77
2024/03/19 07:57:20;;;;;;;;;;;20.90;59.80;;;;;;1480605;79;1947;-75
2024/03/19 07:59:22;;;;;;;;;;;20.90;59.80;;;;;;1491866;78;812;-78
2024/03/19 08:01:24;;;;;;;;;;;20.90;59.80;;;;;;1517894;77;733;-74
2024/03/19 08:03:26;;;;;;;;;;;20.90;59.80;;;;;;1486095;78;1172;-75
2024/03/19 08:05:28;;;;;;;;;;;20.90;59.80;;;;;;1552795;75;714;-78
2024/03/19 08:07:30;;;;;;;;;;;20.90;59.70;;;;;;1553794;76;752;-76
2024/03/19 08:09:32;;;;;;;;;;;20.90;59.70;;;;;;1557533;76;1528;-75
2024/03/19 08:11:34;;;;;;;;;;;20.90;59.70;;;;;;1555286;76;737;-75
2024/03/19 08:13:36;;;;;;;;;;;20.90;59.70;;;;;;1552371;76;1114;-76
2024/03/19 08:15:38;;;;;;;;;;;20.90;59.70;;;;;;1554300;76;800;-75
2024/03/19 08:17:40;;;;;;;;;;;20.90;59.70;;;;;;1553980;76;1950;-75
2024/03/19 08:19:41;;;;;;;;;;;20.90;59.60;;;;;;1542562;75;712;-73
2024/03/19 08:21:43;;;;;;;;;;;20.90;59.70;;;;;;1557098;76;733;-74
2024/03/19 08:23:46;;;;;;;;;;;20.90;59.60;;;;;;1558645;75;1620;-75
2024/03/19 08:25:48;;;;;;;;;;;20.90;59.60;;;;;;1554935;76;809;-75
2024/03/19 08:27:51;;;;;;;;;;;20.90;59.60;;;;;;1555237;75;770;-75
2024/03/19 08:29:53;;;;;;;;;;;20.90;59.60;;;;;;1550199;76;708;-73
2024/03/19 08:31:55;;;;;;;;;;;20.90;59.60;;;;;;1558852;75;803;-76
2024/03/19 08:33:57;;;;;;;;;;;20.90;59.60;;;;;;1555314;76;1132;-75
2024/03/19 08:35:59;;;;;;;;;;;20.90;59.60;;;;;;1555966;75;719;-74
2024/03/19 08:38:02;;;;;;;;;;;20.90;59.60;;;;;;1549558;76;1946;-75
2024/03/19 08:40:07;;;;;;;;;;;20.90;59.60;;;;;;1555480;76;729;-77
2024/03/19 08:42:09;;;;;;;;;;;20.90;59.60;;;;;;1555736;76;796;-75
2024/03/19 08:44:12;;;;;;;;;;;20.90;59.60;;;;;;1553078;75;1090;-77
2024/03/19 08:46:16;;;;;;;;;;;20.90;59.60;;;;;;1544474;76;747;-75
2024/03/19 08:48:17;;;;;;;;;;;20.90;59.50;;;;;;1555324;76;1517;-77
2024/03/19 08:50:19;;;;;;;;;;;20.90;59.50;;;;;;1556687;76;713;-78
2024/03/19 08:52:21;;;;;;;;;;;20.90;59.50;;;;;;1555433;75;1315;-74
2024/03/19 08:54:23;;;;;;;;;;;21.00;59.50;;;;;;1559883;76;1136;-76
2024/03/19 08:56:25;;;;;;;;;;;21.00;59.50;;;;;;1549275;76;567;-75
2024/03/19 08:58:27;;;;;;;;;;;20.90;59.50;;;;;;1542851;76;1936;-73
2024/03/19 09:00:30;;;;;;;;;;;20.90;59.50;;;;;;1547858;75;735;-74
2024/03/19 09:02:32;;;;;;;;;;;20.90;59.50;;;;;;1557906;76;711;-75
2024/03/19 09:04:38;;;;;;;;;;;20.90;59.50;;;;;;1555259;76;1181;-75
2024/03/19 09:06:38;;;;;;;;;;;20.90;59.50;;;;;;1555468;76;1486;-75
2024/03/19 09:08:39;;;;;;;;;;;20.90;59.50;;;;;;1553648;76;753;-75
2024/03/19 09:10:41;;;;;;;;;;;20.90;59.50;;;;;;1553847;76;745;-79
2024/03/19 09:12:44;;;;;;;;;;;20.90;59.40;;;;;;1560070;76;772;-74
2024/03/19 09:14:46;;;;;;;;;;;20.90;59.40;;;;;;1548964;76;1078;-75
2024/03/19 09:16:48;;;;;;;;;;;20.90;59.40;;;;;;1555326;76;935;-75
2024/03/19 09:18:50;;;;;;;;;;;20.90;59.40;;;;;;1560317;75;1914;-75
2024/03/19 09:20:52;;;;;;;;;;;20.90;59.40;;;;;;1549158;76;1350;-75
2024/03/19 09:22:54;;;;;;;;;;;20.90;59.40;;;;;;1552701;75;743;-76
2024/03/19 09:24:56;;;;;;;;;;;20.90;59.40;;;;;;1550767;76;1124;-76
2024/03/19 09:26:59;;;;;;;;;;;20.90;59.40;;;;;;1556108;76;760;-77
2024/03/19 09:29:00;;;;;;;;;;;20.90;59.40;;;;;;1549505;75;718;-78
2024/03/19 09:31:02;;;;;;;;;;;21.00;59.40;;;;;;1558838;76;729;-75
2024/03/19 09:33:05;;;;;;;;;;;20.90;59.40;;;;;;1552062;75;566;-75
2024/03/19 09:35:07;;;;;;;;;;;20.90;59.40;;;;;;1550828;76;1508;-76
2024/03/19 09:37:09;;;;;;;;;;;20.90;59.40;;;;;;1550814;75;1912;-74
2024/03/19 09:39:12;;;;;;;;;;;20.90;59.30;;;;;;1556544;76;731;-75
2024/03/19 09:41:14;;;;;;;;;;;20.90;59.30;;;;;;1556092;76;773;-76
2024/03/19 09:43:18;;;;;;;;;;;20.90;59.30;;;;;;1556111;75;712;-74
2024/03/19 09:45:22;;;;;;;;;;;20.90;59.30;;;;;;1555525;76;731;-74
2024/03/19 09:47:26;;;;;;;;;;;21.00;59.30;;;;;;1556277;75;1019;-75
2024/03/19 09:49:34;;;;;;;;;;;20.90;59.30;;;;;;1553207;75;1603;-76
2024/03/19 09:51:38;;;;;;;;;;;21.00;59.30;;;;;;1547129;75;624;-75
2024/03/19 09:53:39;;;;;;;;;;;20.90;59.30;;;;;;1546499;76;1260;-76
2024/03/19 09:55:41;;;;;;;;;;;20.90;59.20;;;;;;1554582;76;841;-76
2024/03/19 09:57:49;;;;;;;;;;;21.00;59.20;;;;;;1553725;76;1928;-76
2024/03/19 09:59:51;;;;;;;;;;;20.90;59.20;;;;;;1549710;76;689;-74
2024/03/19 10:01:56;;;;;;;;;;;20.90;59.20;;;;;;1555936;75;670;-75
2024/03/19 10:03:58;;;;;;;;;;;20.90;59.20;;;;;;1548919;76;1158;-75
2024/03/19 10:05:59;;;;;;;;;;;20.90;59.20;;;;;;1558298;75;729;-74
2024/03/19 10:08:01;;;;;;;;;;;20.90;59.20;;;;;;1560900;76;742;-75
2024/03/19 10:10:06;;;;;;;;;;;20.90;59.20;;;;;;1556414;76;683;-75
2024/03/19 10:12:07;;;;;;;;;;;21.00;59.10;;;;;;1553201;76;1157;-77
2024/03/19 10:14:10;;;;;;;;;;;20.90;59.20;;;;;;1552891;76;1172;-76
2024/03/19 10:16:12;;;;;;;;;;;20.90;59.20;;;;;;1552157;76;1561;-75
2024/03/19 10:18:15;;;;;;;;;;;20.90;59.10;;;;;;1558032;75;1909;-74
2024/03/19 10:20:22;;;;;;;;;;;21.00;59.10;;;;;;1555850;76;752;-75
2024/03/19 10:22:25;;;;;;;;;;;21.00;59.10;;;;;;1555639;76;1026;-75
2024/03/19 10:24:32;;;;;;;;;;;21.00;59.10;;;;;;1544875;76;1139;-76
2024/03/19 10:26:38;;;;;;;;;;;21.00;59.10;;;;;;1536142;75;1030;-75
2024/03/19 10:28:44;;;;;;;;;;;21.00;59.10;;;;;;1555809;76;1224;-76
2024/03/19 10:30:43;;;;;;;;;;;21.00;59.00;;;;;;1542978;76;1517;-75
2024/03/19 10:32:45;;;;;;;;;;;20.90;59.10;;;;;;1557267;76;730;-76
2024/03/19 10:34:47;;;;;;;;;;;20.90;59.10;;;;;;1559694;76;1147;-78
2024/03/19 10:36:49;;;;;;;;;;;20.90;59.10;;;;;;1560970;76;706;-74
2024/03/19 10:38:52;;;;;;;;;;;21.00;59.00;;;;;;1554773;76;1970;-76
2024/03/19 10:40:54;;;;;;;;;;;20.90;59.00;;;;;;1548730;76;766;-75
2024/03/19 10:42:56;;;;;;;;;;;21.00;59.00;;;;;;1556311;75;799;-75
2024/03/19 10:44:58;;;;;;;;;;;21.00;59.00;;;;;;1545493;76;1602;-76
2024/03/19 10:47:00;;;;;;;;;;;20.90;59.00;;;;;;1552333;75;758;-78
2024/03/19 10:49:01;;;;;;;;;;;21.00;59.00;;;;;;1547078;75;820;-74
2024/03/19 10:51:03;;;;;;;;;;;21.00;59.00;;;;;;1552702;76;683;-75
2024/03/19 10:53:07;;;;;;;;;;;21.00;59.00;;;;;;1545972;76;767;-77
2024/03/19 10:55:11;;;;;;;;;;;20.90;59.00;;;;;;1558390;76;1082;-76
2024/03/19 10:57:15;;;;;;;;;;;20.90;59.00;;;;;;1539951;76;815;-77
2024/03/19 10:59:17;;;;;;;;;;;20.90;58.90;;;;;;1548364;76;1926;-76
2024/03/19 11:01:18;;;;;;;;;;;21.00;58.90;;;;;;1556712;76;753;-77
2024/03/19 11:03:21;;;;;;;;;;;21.00;58.90;;;;;;1524736;77;1387;-72
2024/03/19 11:05:22;;;;;;;;;;;20.90;58.90;;;;;;1552881;76;731;-76
2024/03/19 11:07:24;;;;;;;;;;;21.00;58.90;;;;;;1554018;76;741;-75
2024/03/19 11:09:27;;;;;;;;;;;20.90;58.90;;;;;;1556719;76;813;-75
2024/03/19 11:11:37;;;;;;;;;;;21.00;58.90;;;;;;1553652;76;674;-75
2024/03/19 11:13:36;;;;;;;;;;;21.00;58.80;;;;;;1555305;76;1535;-76
2024/03/19 11:15:38;;;;;;;;;;;20.90;58.90;;;;;;1553446;76;737;-76
2024/03/19 11:17:40;;;;;;;;;;;21.00;58.90;;;;;;1558556;75;1903;-76
2024/03/19 11:19:42;;;;;;;;;;;21.00;58.80;;;;;;1553628;76;744;-75
2024/03/19 11:21:45;;;;;;;;;;;21.00;58.80;;;;;;1547819;76;774;-76
2024/03/19 11:23:47;;;;;;;;;;;20.90;58.80;;;;;;1554439;76;1177;-75
2024/03/19 11:25:49;;;;;;;;;;;20.90;58.80;;;;;;1559594;76;714;-76
2024/03/19 11:27:51;;;;;;;;;;;20.90;58.80;;;;;;1554361;75;1347;-76
2024/03/19 11:29:53;;;;;;;;;;;20.90;58.80;;;;;;1545216;76;671;-75
2024/03/19 11:31:58;;;;;;;;;;;21.00;58.70;;;;;;1557269;76;742;-78
2024/03/19 11:34:00;;;;;;;;;;;20.90;58.80;;;;;;1551946;76;1152;-75
2024/03/19 11:36:02;;;;;;;;;;;20.90;58.70;;;;;;1542107;76;717;-76
2024/03/19 11:38:04;;;;;;;;;;;21.00;58.70;;;;;;1554793;75;1924;-76
2024/03/19 11:40:12;;;;;;;;;;;20.90;58.70;;;;;;1552032;76;799;-77
2024/03/19 11:42:11;;;;;;;;;;;21.00;58.70;;;;;;1549810;75;1583;-76
2024/03/19 11:44:16;;;;;;;;;;;20.90;58.70;;;;;;1551495;75;1099;-75
2024/03/19 11:46:18;;;;;;;;;;;20.90;58.70;;;;;;1552737;76;742;-79
2024/03/19 11:48:25;;;;;;;;;;;21.00;58.70;;;;;;1550290;75;714;-74
2024/03/19 11:50:24;;;;;;;;;;;20.90;58.70;;;;;;1553354;76;1595;-74
2024/03/19 11:52:26;;;;;;;;;;;20.90;58.70;;;;;;1554154;76;712;-76
2024/03/19 11:54:32;;;;;;;;;;;20.90;58.70;;;;;;1553208;75;1149;-76
2024/03/19 11:56:32;;;;;;;;;;;21.00;58.60;;;;;;1556826;76;1520;-76
2024/03/19 11:58:35;;;;;;;;;;;21.00;58.60;;;;;;1548666;76;1930;-74
2024/03/19 12:00:37;;;;;;;;;;;20.90;58.60;;;;;;1555726;75;790;-78
2024/03/19 12:02:40;;;;;;;;;;;20.90;58.60;;;;;;1551170;75;809;-75
2024/03/19 12:04:42;;;;;;;;;;;20.90;58.60;;;;;;1548700;76;1222;-75
2024/03/19 12:06:45;;;;;;;;;;;21.00;58.60;;;;;;1560922;76;748;-77
2024/03/19 12:08:47;;;;;;;;;;;20.90;58.60;;;;;;1557140;76;1552;-75